Meteo Giornale » Osservazioni meteo Italia » Lecce

ore: 01:55 - Osservazioni Meteo Lecce
Lat. 40° 14' N Lon. 18° 9' E Alt. 48 metri s.l.m.

sereno Europe/Rome

15 °C

Sereno

Temp. 24 Ore

13 °C

27 °C

Nord

0 Km/h

Dew point 14 °C

Umidità 93 %

Visibilità  10 Km

Il sole sorge alle ore 05:21

Il sole tramonta alle ore 20:07

Data e Ora Cielo e Fenomeni T °C DP °C Um. % Pres. hPa Vis. km Vento km/h
Oggi h: 01:55 sereno Sereno 15 14 93 1014 10 N 0
Oggi h: 00:55 sereno Sereno 16 15 93 1015 10 N 0
Ieri h: 23:55 sereno Sereno 16 14 87 1015 10 N 0
Ieri h: 22:55 sereno Sereno 18 15 82 1016 10 N 0
Ieri h: 21:55 sereno Sereno 19 15 77 1016 10 N 0
Ieri h: 20:55 sereno Sereno 20 16 77 1015 10 N 0
Ieri h: 19:55 poco_nuvoloso Poco Nuvoloso 22 14 60 1015 10 N 3.7
Ieri h: 18:55 poco_nuvoloso Poco Nuvoloso 24 17 64 1015 10 N/NE 9.3
Ieri h: 18:10 nuvoloso Nuvoloso 23 15 60 1015 10 NO 16.7
Ieri h: 17:55 coperto_temporali Temporale 23 14 56 1015 10 O 20.3
Ieri h: 16:55 nuvoloso Nuvoloso 25 11 41 1015 10 O/SO 22.2
Ieri h: 15:55 nuvoloso Nuvoloso 26 10 36 1015 10 N/NO 7.4
Ieri h: 14:55 nuvoloso Nuvoloso 27 11 36 1015 10 NE 7.4
Ieri h: 13:55 nuvoloso Nuvoloso 26 10 36 1016 10 N 14.8
Ieri h: 12:55 nuvoloso Nuvoloso 26 9 34 1016 10 N 5.5
Ieri h: 11:55 nuvoloso Nuvoloso 26 9 34 1017 10 O 9.3
Ieri h: 10:55 poco_nuvoloso Poco Nuvoloso 25 10 38 1017 10 O 9.3
Ieri h: 09:55 poco_nuvoloso Poco Nuvoloso 25 11 41 1017 10 N 5.5
Ieri h: 08:55 sereno Sereno 23 11 46 1017 10 N 5.5
Ieri h: 07:55 sereno Sereno 20 16 77 1017 10 N 3.7
Ieri h: 06:55 sereno Sereno 16 15 93 1017 10 N 3.7
Ieri h: 05:55 sereno Sereno 13 12 93 1017 10 N 1.8
Ieri h: 04:55 sereno Sereno 13 12 93 1016 10 N 3.7
Ieri h: 03:55 sereno Sereno 14 13 93 1017 10 N 1.8